createdAt,value
2019-06-10T06:55:05.914Z,7.90
2019-06-10T06:59:02.516Z,8.10
2019-06-10T07:28:13.328Z,7.90
2019-06-10T07:38:45.881Z,7.67
2019-06-10T07:41:32.798Z,7.40
2019-06-10T07:44:22.658Z,7.27
2019-06-10T07:47:12.836Z,7.47
2019-06-10T07:50:03.058Z,7.57
2019-06-10T07:52:50.159Z,7.97
2019-06-10T07:55:37.936Z,7.20
2019-06-10T07:58:27.270Z,7.20
2019-06-10T08:01:15.277Z,6.67
2019-06-10T08:04:04.239Z,7.70
2019-06-10T08:06:53.963Z,7.80
2019-06-10T08:09:44.253Z,7.30
2019-06-10T08:12:32.551Z,6.93
2019-06-10T08:15:23.073Z,6.87
2019-06-10T08:18:13.113Z,7.17
2019-06-10T08:21:02.925Z,7.03
2019-06-10T08:23:50.083Z,6.43
2019-06-10T08:26:37.916Z,6.73
2019-06-10T08:29:26.225Z,7.20
2019-06-10T08:32:14.116Z,6.90
2019-06-10T08:35:02.756Z,6.77
2019-06-10T08:37:52.964Z,6.67
2019-06-10T08:40:41.145Z,7.27
2019-06-10T08:43:32.880Z,6.90
2019-06-10T08:46:22.349Z,7.87
2019-06-10T08:49:12.493Z,7.30
2019-06-10T08:52:02.498Z,6.93
2019-06-10T11:43:52.988Z,5.30
2019-06-10T11:46:43.043Z,5.23
2019-06-10T11:49:30.802Z,4.97
2019-06-10T11:52:20.107Z,5.40
2019-06-10T11:55:16.478Z,5.30
2019-06-10T11:57:59.360Z,5.10
2019-06-10T12:00:48.690Z,4.73
2019-06-10T12:03:36.755Z,4.47
2019-06-10T12:06:24.932Z,4.50
2019-06-10T12:09:13.732Z,4.27
2019-06-10T12:12:03.836Z,4.37
2019-06-10T12:14:55.316Z,5.10
2019-06-10T12:17:51.001Z,4.77
2019-06-10T12:20:35.058Z,4.10
2019-06-10T12:23:23.469Z,5.00
2019-06-10T12:26:11.260Z,4.60
2019-06-10T12:29:01.747Z,4.87
2019-06-10T12:31:50.671Z,4.70
2019-06-10T12:34:38.775Z,4.77
2019-06-10T12:37:26.456Z,4.60
2019-06-10T12:40:16.355Z,5.17
2019-06-10T12:43:07.113Z,4.80
2019-06-10T12:45:56.300Z,5.00
2019-06-10T12:48:45.025Z,4.90
2019-06-10T12:51:33.110Z,5.20
2019-06-10T12:54:25.066Z,4.60
2019-06-10T12:57:16.363Z,4.80
2019-06-10T13:00:17.695Z,4.70
2019-06-10T13:02:55.274Z,4.47
2019-06-10T13:05:44.744Z,4.33
2019-06-10T13:08:34.897Z,4.43
2019-06-10T13:11:23.423Z,4.53
2019-06-10T13:14:13.038Z,4.90
2019-06-10T13:17:02.998Z,4.80
2019-06-10T13:19:50.898Z,4.60
2019-06-10T13:22:39.026Z,5.10
2019-06-10T13:25:27.182Z,4.90
2019-06-10T13:29:42.804Z,4.67
2019-06-10T18:00:52.831Z,5.40
2019-06-10T18:03:40.117Z,6.00
2019-06-10T18:06:31.436Z,5.97
2019-06-10T18:09:19.841Z,5.73
2019-06-10T18:12:07.941Z,6.07
2019-06-10T18:14:56.690Z,5.83
2019-06-10T18:17:46.126Z,5.43
2019-06-10T18:20:36.898Z,5.60
2019-06-10T18:23:24.825Z,4.67
2019-06-10T18:26:12.896Z,5.03
2019-06-10T18:29:06.057Z,4.10
2019-06-10T18:31:53.029Z,4.57
2019-06-10T18:34:43.465Z,4.70
2019-06-10T18:37:34.464Z,3.27
2019-06-10T18:40:20.950Z,3.47
2019-06-10T18:43:09.215Z,3.00
2019-06-10T18:45:56.693Z,3.40
2019-06-10T18:48:44.328Z,3.17
2019-06-10T18:51:35.577Z,2.80
2019-06-10T18:54:22.565Z,2.70
2019-06-10T18:57:10.965Z,2.80
2019-06-10T18:59:58.750Z,2.70
2019-06-10T19:02:47.192Z,3.10
2019-06-10T19:05:36.655Z,3.23
2019-06-10T19:08:25.713Z,3.20
2019-06-10T19:11:13.550Z,3.43
2019-06-10T19:14:03.378Z,2.87
2019-06-10T19:16:52.416Z,3.47
2019-06-10T19:19:43.067Z,2.70
2019-06-10T19:22:30.302Z,3.07
2019-06-10T19:25:21.355Z,2.90
2019-06-10T19:28:09.437Z,2.80
2019-06-10T19:30:57.271Z,2.90
2019-06-10T19:33:45.617Z,2.63
2019-06-10T19:36:35.510Z,2.70
2019-06-10T19:39:23.644Z,3.13
2019-06-10T19:42:13.194Z,2.70
2019-06-10T19:45:03.044Z,3.03
2019-06-10T19:47:52.340Z,3.03
2019-06-10T19:50:47.606Z,3.37
2019-06-10T19:53:30.039Z,3.07
2019-06-10T19:56:18.441Z,3.00
2019-06-10T19:59:07.115Z,2.60
2019-06-10T20:01:56.430Z,2.77
2019-06-10T20:04:45.640Z,3.22
2019-06-10T20:07:34.024Z,2.97
2019-06-10T20:10:23.079Z,3.45
2019-06-10T20:13:11.489Z,3.57
2019-06-10T20:16:02.995Z,3.27
2019-06-10T20:18:53.769Z,4.08
2019-06-10T20:21:46.196Z,3.10
2019-06-10T20:24:34.047Z,3.65
2019-06-10T20:27:22.778Z,3.52
2019-06-10T20:30:24.401Z,3.70
2019-06-10T20:33:03.288Z,3.33
2019-06-10T20:35:51.371Z,3.50
2019-06-10T20:38:40.014Z,3.53
2019-06-10T20:41:28.254Z,3.42
2019-06-10T20:44:16.294Z,3.60
2019-06-10T20:47:04.490Z,3.72
2019-06-10T20:49:55.901Z,3.72
2019-06-10T20:52:44.240Z,3.57
2019-06-10T20:55:41.359Z,3.58
2019-06-10T20:58:22.519Z,3.70
2019-06-10T21:01:11.077Z,4.03
2019-06-10T21:04:02.802Z,3.80
2019-06-10T21:06:53.144Z,3.27
2019-06-10T21:09:45.947Z,3.10
2019-06-10T21:12:35.607Z,3.47
2019-06-10T21:15:23.950Z,3.62
2019-06-10T21:18:13.346Z,3.60
2019-06-10T21:21:02.632Z,3.80
2019-06-10T21:23:53.594Z,3.30
2019-06-10T21:26:43.919Z,3.90
2019-06-10T21:29:32.276Z,3.50
2019-06-10T21:32:21.055Z,3.60
2019-06-10T21:35:11.989Z,4.42
2019-06-10T21:37:59.529Z,4.20
2019-06-10T21:40:48.111Z,4.80
2019-06-10T21:43:36.909Z,4.53
2019-06-10T21:46:25.043Z,4.62
2019-06-10T21:49:13.301Z,4.05
2019-06-10T21:52:02.968Z,4.28
2019-06-10T21:54:51.125Z,4.45
2019-06-10T21:57:39.585Z,4.20
2019-06-10T22:00:30.472Z,4.90
2019-06-10T22:03:19.171Z,4.78
2019-06-10T22:06:09.430Z,4.70
2019-06-10T22:08:58.754Z,4.42
2019-06-10T22:11:48.015Z,5.22
2019-06-10T22:14:36.654Z,4.53
2019-06-10T22:17:25.138Z,4.10
2019-06-10T22:20:14.634Z,4.47
2019-06-10T22:23:02.964Z,4.33
2019-06-10T22:25:53.636Z,4.25
2019-06-10T22:28:43.100Z,4.20
2019-06-10T22:31:32.474Z,4.92
2019-06-10T22:34:22.773Z,4.42
2019-06-10T22:37:12.363Z,4.37
2019-06-10T22:40:03.081Z,4.47
2019-06-10T22:42:53.629Z,4.78
2019-06-10T22:45:42.422Z,5.08
2019-06-10T22:48:30.155Z,5.03
2019-06-10T22:51:19.591Z,5.12
2019-06-10T22:54:08.486Z,4.80
2019-06-10T22:56:59.778Z,4.42
2019-06-10T22:59:48.731Z,5.35
2019-06-10T23:02:37.085Z,6.40
2019-06-10T23:05:25.454Z,6.28
2019-06-10T23:08:13.926Z,5.95
2019-06-10T23:11:02.904Z,6.75
2019-06-10T23:13:53.790Z,5.28
2019-06-10T23:16:42.768Z,5.55
2019-06-10T23:19:33.171Z,5.42
2019-06-10T23:22:22.052Z,6.70
2019-06-10T23:25:12.691Z,6.70
2019-06-10T23:28:01.791Z,4.87
2019-06-10T23:30:50.091Z,5.37
2019-06-10T23:33:37.901Z,5.00
2019-06-10T23:36:26.084Z,6.22
2019-06-10T23:39:15.414Z,5.47
2019-06-10T23:42:04.541Z,6.33
2019-06-10T23:44:55.337Z,6.17
2019-06-10T23:47:44.104Z,5.20
2019-06-10T23:50:35.646Z,4.97
2019-06-10T23:53:24.534Z,5.97
2019-06-10T23:56:13.311Z,7.33
2019-06-10T23:59:03.439Z,6.92
